createdAt,value
2022-12-29T00:00:06.561Z,8.40
2022-12-29T00:02:39.566Z,8.40
2022-12-29T00:05:06.786Z,8.40
2022-12-29T00:07:33.468Z,8.50
2022-12-29T00:10:00.170Z,8.50
2022-12-29T00:12:46.963Z,8.50
2022-12-29T00:15:32.313Z,8.60
2022-12-29T00:17:59.092Z,8.60
2022-12-29T00:20:44.603Z,8.60
2022-12-29T00:23:29.785Z,8.60
2022-12-29T00:26:14.943Z,8.60
2022-12-29T00:29:01.050Z,8.70
2022-12-29T00:31:46.609Z,8.70
2022-12-29T00:34:32.364Z,8.70
2022-12-29T00:36:59.017Z,8.70
2022-12-29T00:39:46.108Z,8.70
2022-12-29T00:42:38.897Z,8.70
2022-12-29T00:45:05.831Z,8.70
2022-12-29T00:47:32.478Z,8.80
2022-12-29T00:49:59.150Z,8.80
2022-12-29T00:52:25.797Z,8.80
2022-12-29T00:54:52.704Z,8.90
2022-12-29T00:57:19.466Z,8.90
2022-12-29T00:59:46.314Z,8.90
2022-12-29T01:02:13.186Z,9.00
2022-12-29T01:04:40.092Z,9.00
2022-12-29T01:07:06.861Z,9.00
2022-12-29T01:09:52.620Z,9.00
2022-12-29T01:12:39.346Z,9.00
2022-12-29T01:15:07.084Z,9.00
2022-12-29T01:17:33.940Z,9.00
2022-12-29T01:20:01.405Z,9.00
2022-12-29T01:22:28.202Z,9.00
2022-12-29T01:24:56.039Z,9.00
2022-12-29T01:27:22.750Z,9.00
2022-12-29T01:29:49.393Z,8.90
2022-12-29T01:32:16.132Z,9.00
2022-12-29T01:34:45.015Z,8.90
2022-12-29T01:37:11.851Z,9.00
2022-12-29T01:39:38.510Z,8.90
2022-12-29T01:42:05.406Z,8.90
2022-12-29T01:44:47.440Z,8.90
2022-12-29T01:47:19.009Z,9.00
2022-12-29T01:49:45.705Z,9.00
2022-12-29T01:52:12.419Z,9.00
2022-12-29T01:54:49.609Z,9.00
2022-12-29T01:57:19.326Z,9.10
2022-12-29T01:59:50.251Z,9.10
2022-12-29T02:02:17.140Z,9.10
2022-12-29T02:04:45.381Z,9.10
2022-12-29T02:07:23.914Z,9.10
2022-12-29T02:09:51.722Z,9.10
2022-12-29T02:12:19.871Z,9.00
2022-12-29T02:14:47.274Z,9.00
2022-12-29T02:17:22.900Z,9.10
2022-12-29T02:19:58.689Z,9.00
2022-12-29T02:22:28.833Z,9.00
2022-12-29T02:25:19.988Z,9.00
2022-12-29T02:27:52.983Z,8.90
2022-12-29T02:30:41.060Z,8.90
2022-12-29T02:33:31.009Z,8.90
2022-12-29T02:36:04.292Z,8.80
2022-12-29T02:38:31.019Z,8.80
2022-12-29T02:41:02.103Z,8.80
2022-12-29T02:43:34.671Z,8.80
2022-12-29T02:46:07.233Z,8.80
2022-12-29T02:48:46.457Z,8.80
2022-12-29T02:51:19.590Z,8.70
2022-12-29T02:54:05.442Z,8.70
2022-12-29T02:56:32.979Z,8.60
2022-12-29T02:58:59.847Z,8.60
2022-12-29T03:01:32.712Z,8.50
2022-12-29T03:04:18.726Z,8.50
2022-12-29T03:06:53.106Z,8.50
2022-12-29T03:09:25.435Z,8.60
2022-12-29T03:12:11.159Z,8.60
2022-12-29T03:15:01.599Z,8.70
2022-12-29T03:17:39.231Z,8.70
2022-12-29T03:20:08.604Z,8.80
2022-12-29T03:22:39.646Z,8.80
2022-12-29T03:25:34.333Z,8.80
2022-12-29T03:28:06.141Z,8.80
2022-12-29T03:30:38.926Z,8.80
2022-12-29T03:33:08.785Z,8.80
2022-12-29T03:35:37.103Z,8.80
2022-12-29T03:38:18.555Z,8.80
2022-12-29T03:40:48.463Z,8.90
2022-12-29T03:43:15.803Z,8.90
2022-12-29T03:45:42.649Z,8.90
2022-12-29T03:48:10.003Z,8.90
2022-12-29T03:50:40.882Z,9.00
2022-12-29T03:53:07.971Z,9.00
2022-12-29T03:55:34.689Z,9.00
2022-12-29T03:58:01.444Z,9.00
2022-12-29T04:00:46.253Z,9.00
2022-12-29T04:03:13.100Z,9.00
2022-12-29T04:05:39.810Z,9.00
2022-12-29T04:08:06.921Z,9.00
2022-12-29T04:10:34.081Z,9.00
2022-12-29T04:13:04.052Z,9.00
2022-12-29T04:15:31.860Z,8.90
2022-12-29T04:17:59.783Z,9.00
2022-12-29T04:20:46.182Z,8.90
2022-12-29T04:23:13.110Z,9.00
2022-12-29T04:25:40.475Z,9.00
2022-12-29T04:28:10.178Z,9.00
2022-12-29T04:30:46.794Z,8.90
2022-12-29T04:33:20.241Z,8.90
2022-12-29T04:35:47.886Z,8.80
2022-12-29T04:38:15.603Z,8.70
2022-12-29T04:40:43.455Z,8.70
2022-12-29T04:43:11.227Z,8.70
2022-12-29T04:45:57.899Z,8.70
2022-12-29T04:48:29.243Z,8.70
2022-12-29T04:51:18.465Z,8.70
2022-12-29T04:53:45.311Z,8.60
2022-12-29T04:56:12.094Z,8.60
2022-12-29T04:58:38.785Z,8.60
2022-12-29T05:01:05.923Z,8.60
2022-12-29T05:03:32.660Z,8.60
2022-12-29T05:05:59.845Z,8.60
2022-12-29T05:08:28.534Z,8.60
2022-12-29T05:10:57.604Z,8.70
2022-12-29T05:13:24.289Z,8.70
2022-12-29T05:15:52.799Z,8.70
2022-12-29T05:18:20.453Z,8.70
2022-12-29T05:20:47.655Z,8.70
2022-12-29T05:23:15.024Z,8.70
2022-12-29T05:25:44.594Z,8.70
2022-12-29T05:28:30.820Z,8.80
2022-12-29T05:31:03.020Z,8.80
2022-12-29T05:33:30.750Z,8.80
2022-12-29T05:35:58.151Z,8.90
2022-12-29T05:38:24.935Z,8.80
2022-12-29T05:40:51.697Z,8.80
2022-12-29T05:43:50.018Z,8.70
2022-12-29T05:46:30.407Z,8.70
2022-12-29T05:49:11.935Z,8.70
2022-12-29T05:51:59.014Z,8.80
2022-12-29T05:54:25.865Z,8.80
2022-12-29T05:56:52.749Z,8.90
2022-12-29T05:59:20.687Z,8.90
2022-12-29T06:01:48.357Z,8.90
2022-12-29T06:04:15.202Z,8.90
2022-12-29T06:06:42.373Z,8.90
2022-12-29T06:09:15.429Z,8.90
2022-12-29T06:11:43.983Z,8.80
2022-12-29T06:14:10.736Z,8.80
2022-12-29T06:16:37.753Z,8.80
2022-12-29T06:19:08.676Z,8.90
2022-12-29T06:21:36.230Z,9.00
2022-12-29T06:24:03.131Z,9.00
2022-12-29T06:26:30.816Z,9.00
2022-12-29T06:28:57.633Z,9.00
2022-12-29T06:31:24.319Z,9.00
2022-12-29T06:33:51.165Z,8.90
2022-12-29T06:36:18.526Z,8.90
2022-12-29T06:38:45.341Z,8.90
2022-12-29T06:41:12.669Z,8.90
2022-12-29T06:43:57.808Z,8.90
2022-12-29T06:46:36.725Z,8.90
2022-12-29T06:49:03.435Z,8.90
2022-12-29T06:51:30.073Z,9.00
2022-12-29T06:53:56.743Z,9.00
2022-12-29T06:56:23.447Z,9.00
2022-12-29T06:58:50.224Z,9.00
2022-12-29T07:01:17.368Z,9.00
2022-12-29T07:03:44.170Z,9.00
2022-12-29T07:06:10.889Z,9.00
2022-12-29T07:08:37.566Z,9.10
2022-12-29T07:11:04.267Z,9.10
2022-12-29T07:13:31.007Z,9.20
2022-12-29T07:15:57.658Z,9.20
2022-12-29T07:18:24.969Z,9.20
2022-12-29T07:20:51.827Z,9.30
2022-12-29T07:23:18.472Z,9.30
2022-12-29T07:25:45.155Z,9.40
2022-12-29T07:28:11.882Z,9.40
2022-12-29T07:30:39.455Z,9.40
2022-12-29T07:33:06.121Z,9.50
2022-12-29T07:35:34.391Z,9.50
2022-12-29T07:38:01.051Z,9.50
2022-12-29T07:40:27.730Z,9.60
2022-12-29T07:42:54.428Z,9.60
2022-12-29T07:45:30.079Z,9.70
2022-12-29T07:48:16.956Z,9.70
2022-12-29T07:50:43.615Z,9.70
2022-12-29T07:53:10.444Z,9.80
2022-12-29T07:55:37.144Z,9.80
2022-12-29T07:58:03.789Z,9.90
2022-12-29T08:00:30.454Z,9.90
2022-12-29T08:02:58.900Z,9.90
2022-12-29T08:05:25.587Z,9.90
2022-12-29T08:07:52.389Z,10.00
2022-12-29T08:10:19.047Z,10.00
2022-12-29T08:12:46.316Z,10.10
2022-12-29T08:15:13.313Z,10.10
2022-12-29T08:17:39.929Z,10.20
2022-12-29T08:20:07.305Z,10.30
2022-12-29T08:22:34.098Z,10.30
2022-12-29T08:25:00.773Z,10.30
2022-12-29T08:27:27.413Z,10.40
2022-12-29T08:29:54.083Z,10.50
2022-12-29T08:32:20.833Z,10.50
2022-12-29T08:34:47.562Z,10.70
2022-12-29T08:37:14.256Z,10.80
2022-12-29T08:39:41.236Z,10.90
2022-12-29T08:42:08.018Z,11.00
2022-12-29T08:44:34.655Z,11.10
2022-12-29T08:47:01.412Z,11.30
2022-12-29T08:49:28.076Z,11.50
2022-12-29T08:51:54.778Z,12.20
2022-12-29T08:54:21.417Z,12.40
2022-12-29T08:56:48.076Z,12.30
2022-12-29T08:59:16.282Z,12.20
2022-12-29T09:01:45.604Z,12.00
2022-12-29T09:04:15.689Z,11.90
2022-12-29T09:06:43.295Z,11.70
2022-12-29T09:09:10.225Z,11.60
2022-12-29T09:11:36.946Z,11.50
2022-12-29T09:14:03.883Z,11.50
2022-12-29T09:16:30.879Z,11.40
2022-12-29T09:18:57.624Z,11.30
2022-12-29T09:21:24.311Z,11.30
2022-12-29T09:23:51.097Z,11.20
2022-12-29T09:26:17.841Z,11.10
2022-12-29T09:28:45.298Z,11.10
2022-12-29T09:31:12.610Z,11.10
2022-12-29T09:33:39.667Z,11.10
2022-12-29T09:36:06.539Z,11.10
2022-12-29T09:38:33.235Z,11.10
2022-12-29T09:41:02.993Z,11.10
2022-12-29T09:43:29.688Z,11.10
2022-12-29T09:46:04.658Z,11.10
2022-12-29T09:48:36.089Z,11.10
2022-12-29T09:51:04.786Z,11.10
2022-12-29T09:53:36.730Z,11.20
2022-12-29T09:56:04.550Z,11.30
2022-12-29T09:58:35.513Z,11.40
2022-12-29T10:01:07.474Z,11.50
2022-12-29T10:03:53.229Z,11.60
2022-12-29T10:06:56.435Z,11.70
2022-12-29T10:09:32.067Z,11.70
2022-12-29T10:12:08.038Z,11.70
2022-12-29T10:14:34.669Z,11.70
2022-12-29T10:17:14.193Z,11.70
2022-12-29T10:19:49.610Z,11.80
2022-12-29T10:22:19.021Z,11.80
2022-12-29T10:24:47.249Z,11.90
2022-12-29T10:27:14.773Z,11.90
2022-12-29T10:29:44.132Z,11.80
2022-12-29T10:32:15.485Z,11.90
2022-12-29T10:34:45.900Z,11.80
2022-12-29T10:37:12.569Z,11.80
2022-12-29T10:39:44.122Z,11.80
2022-12-29T10:42:14.967Z,11.70
2022-12-29T10:44:41.975Z,11.70
2022-12-29T10:47:13.038Z,11.70
2022-12-29T10:49:42.400Z,11.50
2022-12-29T10:52:09.536Z,11.50
2022-12-29T10:54:44.998Z,11.50
2022-12-29T10:57:14.392Z,11.40
2022-12-29T10:59:42.527Z,11.50
2022-12-29T11:02:12.135Z,11.50
2022-12-29T11:04:58.727Z,11.70
2022-12-29T11:07:27.657Z,11.80
2022-12-29T11:09:54.891Z,12.00
2022-12-29T11:12:23.412Z,12.10
2022-12-29T11:15:11.194Z,12.20
2022-12-29T11:17:49.065Z,12.20
2022-12-29T11:20:31.356Z,12.20
2022-12-29T11:22:58.472Z,12.10
2022-12-29T11:25:25.149Z,12.10
2022-12-29T11:28:02.609Z,12.10
2022-12-29T11:30:30.893Z,12.00
2022-12-29T11:32:58.216Z,12.00
2022-12-29T11:35:36.160Z,12.00
2022-12-29T11:38:17.092Z,12.10
2022-12-29T11:40:44.089Z,12.20
2022-12-29T11:43:19.226Z,12.30
2022-12-29T11:45:47.388Z,12.30
2022-12-29T11:48:17.912Z,12.30
2022-12-29T11:50:50.020Z,12.20
2022-12-29T11:53:24.810Z,12.30
2022-12-29T11:55:56.988Z,12.30
2022-12-29T11:58:33.924Z,12.30
2022-12-29T12:01:11.093Z,12.20
2022-12-29T12:03:41.609Z,12.30
2022-12-29T12:06:12.925Z,12.30
2022-12-29T12:08:44.693Z,12.20
2022-12-29T12:11:21.364Z,12.30
2022-12-29T12:14:05.487Z,12.20
2022-12-29T12:17:00.845Z,12.10
2022-12-29T12:19:27.510Z,12.20
2022-12-29T12:21:59.943Z,12.10
2022-12-29T12:24:42.844Z,12.00
2022-12-29T12:27:25.571Z,11.90
2022-12-29T12:30:04.100Z,11.80
2022-12-29T12:32:43.831Z,11.70
2022-12-29T12:35:29.204Z,11.70
2022-12-29T12:38:07.624Z,11.70
2022-12-29T12:40:40.198Z,11.70
2022-12-29T12:43:15.680Z,11.70
2022-12-29T12:46:00.789Z,11.80
2022-12-29T12:48:38.676Z,11.80
2022-12-29T12:51:16.424Z,11.80
2022-12-29T12:53:46.144Z,11.70
2022-12-29T12:56:20.847Z,11.70
2022-12-29T12:58:57.749Z,11.70
2022-12-29T13:01:29.382Z,11.70
2022-12-29T13:04:28.140Z,11.70
2022-12-29T13:07:02.269Z,11.70
2022-12-29T13:09:39.473Z,11.70
2022-12-29T13:12:20.736Z,11.70
2022-12-29T13:14:52.976Z,11.70
2022-12-29T13:17:25.679Z,11.70
2022-12-29T13:20:00.785Z,11.70
2022-12-29T13:22:33.898Z,11.60
2022-12-29T13:25:19.360Z,11.60
2022-12-29T13:27:50.120Z,11.50
2022-12-29T13:30:18.897Z,11.60
2022-12-29T13:33:01.036Z,11.50
2022-12-29T13:35:42.924Z,11.50
2022-12-29T13:38:19.801Z,11.50
2022-12-29T13:40:48.051Z,11.50
2022-12-29T13:43:15.348Z,11.50
2022-12-29T13:45:42.897Z,11.40
2022-12-29T13:48:09.990Z,11.40
2022-12-29T13:50:39.444Z,11.40
2022-12-29T13:53:19.003Z,11.30
2022-12-29T13:55:58.521Z,11.30
2022-12-29T13:58:44.214Z,11.30
2022-12-29T14:01:11.485Z,11.40
2022-12-29T14:03:44.374Z,11.30
2022-12-29T14:06:14.700Z,11.40
2022-12-29T14:08:41.520Z,11.40
2022-12-29T14:11:10.420Z,11.40
2022-12-29T14:13:41.675Z,11.40
2022-12-29T14:16:11.581Z,11.30
2022-12-29T14:18:44.952Z,11.40
2022-12-29T14:21:14.510Z,11.30
2022-12-29T14:23:43.072Z,11.30
2022-12-29T14:26:34.462Z,11.20
2022-12-29T14:29:18.066Z,11.20
2022-12-29T14:31:44.747Z,11.10
2022-12-29T14:34:11.384Z,11.00
2022-12-29T14:36:39.671Z,11.00
2022-12-29T14:39:26.368Z,11.00
2022-12-29T14:42:25.607Z,10.90
2022-12-29T14:45:04.709Z,10.90
2022-12-29T14:47:31.340Z,10.80
2022-12-29T14:50:27.521Z,10.70
2022-12-29T14:53:02.518Z,10.60
2022-12-29T14:55:40.430Z,10.50
2022-12-29T14:58:27.292Z,10.50
2022-12-29T15:00:54.459Z,10.40
2022-12-29T15:03:24.385Z,10.30
2022-12-29T15:05:56.483Z,10.30
2022-12-29T15:08:31.966Z,10.20
2022-12-29T15:11:03.945Z,10.20
2022-12-29T15:13:37.860Z,10.10
2022-12-29T15:16:05.376Z,10.10
2022-12-29T15:18:33.943Z,10.10
2022-12-29T15:21:01.507Z,10.10
2022-12-29T15:23:28.421Z,10.10
2022-12-29T15:25:57.052Z,10.00
2022-12-29T15:28:24.005Z,10.00
2022-12-29T15:30:51.664Z,9.90
2022-12-29T15:33:19.151Z,9.90
2022-12-29T15:35:50.096Z,9.90
2022-12-29T15:38:26.223Z,9.80
2022-12-29T15:41:07.372Z,9.80
2022-12-29T15:43:39.515Z,9.80
2022-12-29T15:46:11.242Z,9.70
2022-12-29T15:48:39.139Z,9.70
2022-12-29T15:51:15.802Z,9.70
2022-12-29T15:53:42.502Z,9.70
2022-12-29T15:56:10.976Z,9.70
2022-12-29T15:58:42.037Z,9.60
2022-12-29T16:01:17.307Z,9.60
2022-12-29T16:03:44.517Z,9.70
2022-12-29T16:06:25.678Z,9.70
2022-12-29T16:08:58.458Z,9.70
2022-12-29T16:11:33.692Z,9.70
2022-12-29T16:14:00.861Z,9.60
2022-12-29T16:16:29.841Z,9.60
2022-12-29T16:18:58.125Z,9.60
2022-12-29T16:21:34.641Z,9.50
2022-12-29T16:24:02.917Z,9.40
2022-12-29T16:26:29.728Z,9.40
2022-12-29T16:29:00.838Z,9.40
2022-12-29T16:31:48.646Z,9.30
2022-12-29T16:34:24.619Z,9.30
2022-12-29T16:36:54.544Z,9.30
2022-12-29T16:39:24.253Z,9.40
2022-12-29T16:41:51.522Z,9.30
2022-12-29T16:44:31.325Z,9.30
2022-12-29T16:46:59.682Z,9.30
2022-12-29T16:49:27.099Z,9.30
2022-12-29T16:51:55.749Z,9.20
2022-12-29T16:54:24.414Z,9.20
2022-12-29T16:56:51.656Z,9.20
2022-12-29T16:59:27.651Z,9.20
2022-12-29T17:01:54.436Z,9.10
2022-12-29T17:04:21.201Z,9.20
2022-12-29T17:06:47.832Z,9.10
2022-12-29T17:09:22.175Z,9.20
2022-12-29T17:12:01.580Z,9.10
2022-12-29T17:14:41.256Z,9.10
2022-12-29T17:17:22.382Z,9.10
2022-12-29T17:19:52.806Z,9.10
2022-12-29T17:22:21.353Z,9.10
2022-12-29T17:24:48.239Z,9.10
2022-12-29T17:27:21.305Z,9.10
2022-12-29T17:29:48.140Z,9.20
2022-12-29T17:32:15.108Z,9.10
2022-12-29T17:34:41.991Z,9.10
2022-12-29T17:37:24.055Z,9.10
2022-12-29T17:39:50.794Z,9.10
2022-12-29T17:42:19.259Z,9.10
2022-12-29T17:44:46.158Z,9.10
2022-12-29T17:47:13.468Z,9.10
2022-12-29T17:49:40.084Z,9.00
2022-12-29T17:52:06.769Z,8.90
2022-12-29T17:54:34.331Z,8.80
2022-12-29T17:57:00.972Z,8.60
2022-12-29T17:59:27.773Z,8.50
2022-12-29T18:01:54.552Z,8.30
2022-12-29T18:04:21.318Z,8.30
2022-12-29T18:06:48.109Z,8.20
2022-12-29T18:09:15.014Z,8.10
2022-12-29T18:11:42.950Z,8.10
2022-12-29T18:14:13.602Z,8.00
2022-12-29T18:16:40.293Z,7.90
2022-12-29T18:19:07.413Z,7.90
2022-12-29T18:21:34.491Z,7.90
2022-12-29T18:24:01.292Z,7.80
2022-12-29T18:26:28.965Z,7.80
2022-12-29T18:28:56.822Z,7.80
2022-12-29T18:31:28.354Z,7.80
2022-12-29T18:33:56.525Z,7.90
2022-12-29T18:36:23.469Z,7.90
2022-12-29T18:38:51.859Z,7.80
2022-12-29T18:41:22.617Z,7.80
2022-12-29T18:43:49.376Z,7.80
2022-12-29T18:46:22.170Z,7.80
2022-12-29T18:48:50.177Z,7.80
2022-12-29T18:51:18.092Z,7.90
2022-12-29T18:53:45.376Z,7.90
2022-12-29T18:56:12.474Z,7.90
2022-12-29T18:58:39.600Z,7.90
2022-12-29T19:01:06.550Z,7.90
2022-12-29T19:03:33.751Z,7.90
2022-12-29T19:06:00.884Z,7.80
2022-12-29T19:08:27.663Z,7.80
2022-12-29T19:10:54.383Z,7.70
2022-12-29T19:13:29.218Z,7.70
2022-12-29T19:15:57.278Z,7.70
2022-12-29T19:21:12.011Z,7.60
2022-12-29T19:23:38.645Z,7.70
2022-12-29T19:26:05.702Z,7.70
2022-12-29T19:28:32.417Z,7.80
2022-12-29T19:31:00.386Z,7.90
2022-12-29T19:33:28.090Z,7.90
2022-12-29T19:35:58.701Z,7.90
2022-12-29T19:38:25.361Z,8.00
2022-12-29T19:40:52.081Z,8.10
2022-12-29T19:43:19.134Z,8.10
2022-12-29T19:45:45.898Z,8.10
2022-12-29T19:48:13.761Z,8.10
2022-12-29T19:50:40.541Z,8.00
2022-12-29T19:53:07.260Z,8.00
2022-12-29T19:55:33.912Z,7.90
2022-12-29T19:58:00.597Z,7.90
2022-12-29T20:00:27.273Z,7.80
2022-12-29T20:02:54.106Z,7.90
2022-12-29T20:05:20.985Z,7.80
2022-12-29T20:07:47.750Z,7.80
2022-12-29T20:10:14.688Z,7.80
2022-12-29T20:12:41.475Z,7.80
2022-12-29T20:15:09.258Z,7.80
2022-12-29T20:18:10.678Z,7.80
2022-12-29T20:20:22.867Z,7.80
2022-12-29T20:22:49.530Z,7.80
2022-12-29T20:25:44.115Z,7.80
2022-12-29T20:28:03.409Z,7.80
2022-12-29T20:30:30.081Z,7.80
2022-12-29T20:32:56.721Z,7.80
2022-12-29T20:35:23.403Z,7.70
2022-12-29T20:37:50.069Z,7.70
2022-12-29T20:40:16.771Z,7.70
2022-12-29T20:42:43.446Z,7.80
2022-12-29T20:45:10.113Z,7.80
2022-12-29T20:47:36.749Z,7.90
2022-12-29T20:50:03.522Z,7.90
2022-12-29T20:52:30.361Z,7.90
2022-12-29T20:54:57.015Z,7.90
2022-12-29T20:57:23.698Z,7.90
2022-12-29T20:59:50.446Z,7.90
2022-12-29T21:02:18.795Z,7.90
2022-12-29T21:05:21.984Z,8.00
2022-12-29T21:07:32.619Z,8.00
2022-12-29T21:09:59.273Z,7.90
2022-12-29T21:12:25.972Z,7.90
2022-12-29T21:14:52.740Z,7.90
2022-12-29T21:17:19.514Z,7.90
2022-12-29T21:19:46.231Z,7.90
2022-12-29T21:22:13.008Z,7.90
2022-12-29T21:24:39.696Z,7.90
2022-12-29T21:27:06.366Z,7.90
2022-12-29T21:29:33.112Z,7.90
2022-12-29T21:32:06.440Z,8.00
2022-12-29T21:34:34.673Z,8.00
2022-12-29T21:37:01.637Z,7.90
2022-12-29T21:39:28.314Z,7.90
2022-12-29T21:42:00.200Z,7.90
2022-12-29T21:44:45.968Z,7.90
2022-12-29T21:47:12.752Z,7.90
2022-12-29T21:49:39.394Z,7.90
2022-12-29T21:52:06.059Z,7.90
2022-12-29T21:54:51.709Z,7.80
2022-12-29T21:57:37.110Z,7.80
2022-12-29T22:00:23.509Z,7.80
2022-12-29T22:03:12.795Z,7.80
2022-12-29T22:06:02.192Z,7.70
2022-12-29T22:08:47.450Z,7.60
2022-12-29T22:11:33.080Z,7.50
2022-12-29T22:14:01.505Z,7.50
2022-12-29T22:16:28.356Z,7.50
2022-12-29T22:18:55.325Z,7.50
2022-12-29T22:21:21.978Z,7.40
2022-12-29T22:23:48.627Z,7.40
2022-12-29T22:26:15.391Z,7.40
2022-12-29T22:28:43.286Z,7.40
2022-12-29T22:31:21.888Z,7.40
2022-12-29T22:33:48.595Z,7.30
2022-12-29T22:36:15.261Z,7.30
2022-12-29T22:38:42.043Z,7.30
2022-12-29T22:41:08.672Z,7.30
2022-12-29T22:43:35.352Z,7.30
2022-12-29T22:46:03.355Z,7.30
2022-12-29T22:48:33.585Z,7.30
2022-12-29T22:51:00.408Z,7.30
2022-12-29T22:53:27.108Z,7.30
2022-12-29T22:56:07.413Z,7.20
2022-12-29T22:58:34.699Z,7.30
2022-12-29T23:01:01.405Z,7.30
2022-12-29T23:03:28.244Z,7.40
2022-12-29T23:05:55.876Z,7.40
2022-12-29T23:08:22.553Z,7.40
2022-12-29T23:10:49.242Z,7.40
2022-12-29T23:13:15.921Z,7.40
2022-12-29T23:15:42.594Z,7.40
2022-12-29T23:18:09.216Z,7.40
2022-12-29T23:20:35.883Z,7.40
2022-12-29T23:23:02.701Z,7.50
2022-12-29T23:25:29.360Z,7.50
2022-12-29T23:27:56.015Z,7.50
2022-12-29T23:30:22.655Z,7.50
2022-12-29T23:32:49.516Z,7.40
2022-12-29T23:35:16.207Z,7.50
2022-12-29T23:37:42.839Z,7.50
2022-12-29T23:40:09.712Z,7.40
2022-12-29T23:42:36.356Z,7.40
2022-12-29T23:45:03.024Z,7.40
2022-12-29T23:47:29.630Z,7.40
2022-12-29T23:49:56.273Z,7.40
2022-12-29T23:52:22.915Z,7.40
2022-12-29T23:54:49.677Z,7.30
2022-12-29T23:57:16.579Z,7.30
2022-12-29T23:59:43.256Z,7.20
